Cracovia, Polonia

07:52 PM CEST on septembrie 30, 2014 (GMT +0200)
John Paul II International / Krakow-Balice | Change Station
CLOSE
Current Station
Aeroport
Location: Krakow,
Elevation: 778 ft
Nearby Weather Stations

Elev 778 ft 50.08 °N, 19.80 °E | Updated 22 minutes ago

Clear
Cer senin
61 °F
Feels Like 61 °F
N
0
Vânt variabil Vânt from nord

astăzi
High -- | Low -- °F
--% Chance of Precip.
Ieri
High -- | Low -- °F
Precip. -- inch
6:38 AM 6:21 PM
Semilună în creştere, 38% visible
Presiunea 30.24 inch
Vizibilitatea -9999.0 mile
Nori
Punctul de rouă 59 °F
Umiditatea 94%
Precipitaţii 0.00 inch
Adâncimea zăpezii Not available.
UV Not available.
Pollen Not available.
Calitatea aerului Not available.
Flu Activity Not available.
METAR EPKK 301730Z 00000KT CAVOK 16/15 Q1024

More Conditions Fewer Conditions

Presiunea 30.24 inch
Vizibilitatea -9999.0 mile
Nori
Punctul de rouă 59 °F
Umiditatea 94%
Precipitaţii 0.00 inch
Adâncimea zăpezii Not available.
UV Not available.
Pollen Not available.
Calitatea aerului Not available.
Flu Activity Not available.
METAR EPKK 301730Z 00000KT CAVOK 16/15 Q1024

More Conditions Fewer Conditions

10-Day Weather Forecast

Almanac

Astronomie

Sep. 30, 2014 Răsărit Apus
Timpul Actual 6:38 AM CEST 6:21 PM CEST
Crepusculul Civil 6:06 AM CEST 6:54 PM CEST
Crepusculul nautic 5:28 AM CEST 7:31 PM CEST
Răsărit Astronomic 4:50 AM CEST 8:10 PM CEST
Luna 12:57 PM CEST 10:07 PM CEST
Durata zilei lumină 12h 47m
Lungimea zilei
11h 42m
Tomorrow will be 3m 43s shorter.
Semilună în creştere, 38% of the Moon is Illuminated
astăzi
Semilună în creştere
Oct 1
Primul pătrar
Oct 8
Lună plină
Oct 15
Ultimul pătrar
Oct 23
New

Extremele de azi

Country Highs Country Lows

Community

WunderPhotos

Upload Photos

1,757,693 photos uploaded!

Nearby

Calitatea aerului

Not available.

Adâncimea zapezii

Not available.

Earthquake Activity

Oraş Distance Mag. Time & Date
No recent earthquake activity has been reported nearby.
Minimum magnitude displayed is 2.5.

Coastal Water Temperatures

Locul Temperatura
No Stations Reporting

Nearby Weather Stations